• Join FlightAware (Why Join?)
  • Login
  • US Flag 
10:58AM EDT


 

Airport Tracker/Info


-or-


 

Live Flight TrackerFlight Track Log ✈ BWA446 ✈ 27-Feb-2012 ✈ TTPP / POS - TBPB / BGI

Flight Track Log - Related Links

Times and Time Zones

All times are in EST time to prevent confusion due to time zone crossing. See the BWA446 flight status page for this flight to view local times or setup timezone preferences in your user account.

Time Position Orientation Groundspeed Altitude Reporting Facility
EST Latitude Longitude Course Direction KTS MPH feet Rate Location/Type
06:47PM 10.7580 -61.2175 36° Northeast  Level Estimated
06:48PM 10.8158 -61.1749 36° Northeast  Level Estimated
06:49PM 10.8735 -61.1323 36° Northeast  Level Estimated
06:50PM 10.9312 -61.0897 36° Northeast  Level Estimated
06:51PM 10.9889 -61.0471 36° Northeast  Level Estimated
06:52PM 11.0466 -61.0045 36° Northeast  Level Estimated
06:53PM 11.1043 -60.9619 36° Northeast  Level Estimated
06:54PM 11.1620 -60.9192 36° Northeast  Level Estimated
06:55PM 11.2197 -60.8766 36° Northeast  Level Estimated
06:56PM 11.2774 -60.8339 36° Northeast  Level Estimated
06:57PM 11.3351 -60.7912 36° Northeast  Level Estimated
06:58PM 11.3928 -60.7485 36° Northeast  Level Estimated
06:59PM 11.4504 -60.7057 36° Northeast  Level Estimated
07:00PM 11.5081 -60.6629 36° Northeast  Level Estimated
07:01PM 11.5658 -60.6202 36° Northeast  Level Estimated
07:02PM 11.6234 -60.5774 36° Northeast  Level Estimated
07:03PM 11.6811 -60.5346 36° Northeast  Level Estimated
07:04PM 11.7387 -60.4917 36° Northeast  Level Estimated
07:05PM 11.7963 -60.4489 36° Northeast  Level Estimated
07:06PM 11.8539 -60.4060 36° Northeast  Level Estimated
07:07PM 11.9116 -60.3631 36° Northeast  Level Estimated
07:08PM 11.9692 -60.3202 36° Northeast  Level Estimated
07:09PM 12.0268 -60.2773 36° Northeast  Level Estimated
07:10PM 12.0844 -60.2344 36° Northeast  Level Estimated
07:11PM 12.1420 -60.1914 36° Northeast  Level Estimated
07:12PM 12.1996 -60.1484 36° Northeast  Level Estimated
07:13PM 12.2571 -60.1055 36° Northeast  Level Estimated
07:14PM 12.3147 -60.0625 36° Northeast  Level Estimated
07:15PM 12.3723 -60.0194 36° Northeast  Level Estimated
07:16PM 12.4298 -59.9764 36° Northeast  Level Estimated
07:17PM 12.4874 -59.9333 36° Northeast  Level Estimated
07:18PM 12.5449 -59.8902 36° Northeast  Level Estimated
07:19PM 12.6025 -59.8471 36° Northeast  Level Estimated
07:20PM 12.6600 -59.8040 36° Northeast  Level Estimated
07:21PM 12.7175 -59.7608 36° Northeast  Level Estimated
07:22PM 12.7751 -59.7177 36° Northeast  Level Estimated
07:23PM 12.8326 -59.6745 36° Northeast  Level Estimated
07:24PM 12.8901 -59.6313 36° Northeast  Level Estimated
07:25PM 12.9476 -59.5881 36° Northeast  Level Estimated
07:26PM 13.0050 -59.5448 36° Northeast  Level Estimated
07:27PM 13.0625 -59.5015 36° Northeast  Level Estimated
07:28PM 13.1200 -59.4583 216° Southwest  Level Estimated
07:29PM 13.0625 -59.5015 36° Northeast  Level Estimated
07:30PM 13.1200 -59.4583 216° Southwest  Level Estimated
07:31PM 13.0625 -59.5015 36° Northeast  Level Estimated
07:32PM 13.1200 -59.4583 216° Southwest  Level Estimated
07:33PM 13.0625 -59.5015 36° Northeast  Level Estimated
07:34PM 13.1200 -59.4583 216° Southwest  Level Estimated
07:35PM 13.0625 -59.5015 36° Northeast  Level Estimated
07:36PM 13.1200 -59.4583 216° Southwest  Level Estimated
07:37PM 13.0625 -59.5015 36° Northeast  Level Estimated
07:38PM 13.1200 -59.4583 216° Southwest  Level Estimated
07:39PM 13.0625 -59.5015 36° Northeast  Level Estimated
07:40PM 13.1200 -59.4583 216° Southwest  Level Estimated
07:41PM 13.0625 -59.5015 36° Northeast  Level Estimated
07:42PM 13.1200 -59.4583 216° Southwest  Level Estimated
07:43PM 13.0625 -59.5015 216° Southwest  Level Estimated